KEOK

Keokuk Municipal Airport

Keokuk, Iowa, USA
METAR KEOK 171135Z AUTO 30004KT 10SM CLR 05/03 A3030 RMK AO2
Observed Flight Rules
Oct-17 @ 11:35 UTC (14 minutes ago) Visual Flight Rules
Wind Visibility Clouds
300° at 4 knots 10 miles
  • Clear skies
Temperatures Readings
Current 5°C / 41°F
Dewpoint 3°C / 37°F
Humidity 87%
Altimeter 30.3" Hg
Pressure 1026 hPa
Elevation 205
METAR KEOK 171135Z AUTO 30004KT 10SM CLR 05/03 A3030 RMK AO2
Observed Flight Rules
Oct-17 @ 11:35 UTC
(14 minutes ago)
VFR
Wind Visibility
300° at 4 knots 10 miles
Clouds
  • Clear skies
Temperature Dewpoint
5°C / 41°F 3°C / 37°F
Humidity Altimeter Pressure
87% 30.3" Hg 1026 hPa